Weather observations for the past three days for
South St. Paul Municipal-Richard E. Flemi
Metric (Imperial)
Date Time (cdt) Wind (kph) Vis. (km) Weather Sky Cond. Temperature (ºC) Relative Humidity Wind Chill (°C) Heat Index (°C) Pressure Precipitation (cm)
Air Dwpt 6 hour altimeter (cm) sea level (mb) 1 hr 3 hr 6 hr
Max. Min.
05 09:35 NE 7 16.09 Overcast OVC006 21.5 20.6 95% 76.33 0.0
05 09:15 NE 6 11.27 Overcast OVC006 21.2 20.5 96% 76.33 0.0
05 08:55 Calm 11.27 Overcast OVC006 21.1 20.5 96% 76.33 0.0
05 08:35 NE 6 11.27 Overcast OVC004 21 20.5 97% 76.33 0.0
05 08:15 NE 6 11.27 Overcast OVC004 20.8 20.5 98% 76.28 0.0
05 07:55 E 7 11.27 Overcast OVC004 20.8 20.5 98% 76.23 0.0
05 07:35 NE 6 11.27 Overcast OVC004 20.7 20.5 99% 76.23 0.0
05 07:15 N 6 11.27 Overcast OVC004 20.5 20.5 100% 76.25 0.0
05 06:55 Calm 8.05 Fog/Mist OVC004 20.2 20.2 20.7 19.5 100% 76.23 0.0
05 06:35 Calm 4.83 Fog/Mist OVC004 20.1 20.1 100% 76.2 0.0
05 06:15 N 6 4.02 Fog/Mist OVC004 20 20 100% 76.2 0.0
05 05:55 N 6 11.27 Overcast OVC004 20 20 100% 76.2 0.0
05 05:35 Calm 4.83 Fog/Mist OVC004 19.7 19.7 100% 76.17 0.0
05 05:15 Calm 4.83 Fog/Mist OVC004 19.6 19.6 100% 76.2 0.0
05 04:55 NE 7 11.27 Overcast OVC004 19.6 19.5 99% 76.15 0.0
05 04:35 NE 7 6.44 Fog/Mist OVC004 19.5 19.5 100% 76.15 0.0
05 04:15 NE 7 11.27 Overcast OVC004 19.7 19.4 98% 76.15 0.0
05 03:55 NE 7 11.27 Overcast OVC006 19.8 19.2 96% 76.17 0.0
05 03:35 N 7 16.09 Overcast OVC006 20 19.2 95% 76.17 0.0
05 03:15 NE 9 11.27 Overcast OVC006 19.9 19.2 96% 76.17 0.0
05 02:55 N 11 11.27 Overcast OVC006 19.8 19.1 96% 76.17 0.0
05 02:35 N 9 16.09 Overcast OVC006 19.7 19.1 96% 76.2 0.0
05 02:15 N 9 16.09 Overcast OVC006 19.7 19 96% 76.2 0.0
05 01:55 N 11 16.09 Mostly Cloudy BKN008 BKN011 20 18.8 93% 76.2 0.0
05 01:35 N 11 16.09 Partly Cloudy SCT008 20.2 19 93% 76.2 0.0
05 01:15 N 7 16.09 Fair CLR 20.5 18.8 90% 76.17 0.0
05 00:55 N 7 16.09 Fair CLR 20.7 18.9 28.8 20.7 89% 76.17 0.0
05 00:35 N 6 16.09 Fair CLR 21 18.9 88% 76.15 0.0
05 00:15 N 7 16.09 Fair CLR 21.4 18.8 85% 76.12 0.0
04 23:55 N 6 16.09 Fair CLR 21.7 18.8 84% 76.15 0.0
04 23:35 N 6 16.09 Fair CLR 21.9 18.7 82% 76.15 0.0
04 23:15 Calm 16.09 Fair CLR 22.5 18.6 79% 76.12 0.0
04 22:55 N 9 16.09 Fair CLR 22.7 18.6 78% 76.15 0.0
04 22:35 N 9 16.09 Fair CLR 23 18.5 76% 76.15 0.0
04 22:15 N 11 16.09 Fair CLR 23.5 18.5 74% 76.12 0.0
04 21:55 N 13 16.09 Fair CLR 24 18.6 72% 25 76.12 0.0
04 21:35 N 13 11.27 Fair CLR 24.6 18.8 70% 26 76.1 0.0
04 21:15 N 13 16.09 Fair CLR 25.5 19 67% 27 76.07 0.0
04 20:55 N 15 G 26 16.09 Fair CLR 26.3 19.2 65% 27 76.07 0.0
04 20:35 N 13 16.09 Fair CLR 26.7 19.2 64% 28 76.05 0.0
04 20:15 N 9 16.09 Fair CLR 27.1 19.3 62% 28 76.02 0.0
04 19:55 N 13 16.09 Fair CLR 27.2 19.1 61% 28 76.02 0.0
04 19:35 N 9 16.09 Fair CLR 28 19.3 59% 29 76 0.0
04 19:15 N 7 16.09 Fair CLR 28.5 19.9 60% 30 76 0.0
04 18:55 N 11 16.09 Fair CLR 29 20.1 30.7 28.1 59% 31 76 0.0
04 18:35 N 9 16.09 Fair CLR 29.4 20.2 58% 31 76 0.0
04 18:15 N 11 16.09 Fair CLR 29.7 21 60% 32 75.97 0.0
04 17:55 N 9 16.09 Fair CLR 30.1 21.2 59% 33 75.97 0.0
04 17:35 N 15 16.09 Fair CLR 30.2 21.2 59% 33 75.95 0.0
04 17:15 N 11 16.09 Fair CLR 30.3 21.2 58% 33 75.95 0.0
04 16:55 N 13 16.09 Fair CLR 30.5 21 57% 33 75.92 0.0
04 16:35 NW 13 16.09 Fair CLR 30.4 21 57% 33 75.92 0.0
04 16:15 NW 9 11.27 Fair CLR 30.7 21.1 57% 33 75.95 0.0
04 15:55 N 9 16.09 Fair CLR 30.3 21.3 59% 33 75.95 0.0
04 15:35 N 13 16.09 Fair CLR 29.9 21.5 61% 33 75.92 0.0
04 15:15 N 6 16.09 Fair CLR 29.7 21.6 62% 33 75.95 0.0
04 14:55 N 11 11.27 Fair CLR 29.1 21.6 64% 32 75.95 0.0
04 14:35 N 11 11.27 Partly Cloudy SCT019 29.1 21.8 65% 32 75.95 0.0
04 14:15 N 11 11.27 Mostly Cloudy BKN019 28.5 21.9 68% 31 75.95 0.0
04 13:55 N 15 11.27 Overcast OVC019 28.3 21.9 68% 31 75.95 0.0
04 13:35 N 15 16.09 Mostly Cloudy BKN019 28.8 21.9 66% 32 75.95 0.0
04 13:15 N 17 11.27 Mostly Cloudy BKN017 28.5 22.1 68% 31 75.95 0.0
04 12:55 N 17 16.09 Partly Cloudy SCT017 28.7 22.3 29.9 22.1 68% 32 75.95 0.0
04 12:35 N 17 16.09 Partly Cloudy SCT015 28.6 22.5 70% 32 75.92 0.0
04 12:15 N 17 16.09 Fair CLR 28.9 22.6 69% 32 75.92 0.0
04 11:55 N 13 16.09 Fair CLR 29.6 22.7 66% 33 75.92 0.0
04 11:35 N 15 16.09 Fair CLR 29.5 22.7 67% 33 75.9 0.0
04 11:15 N 9 11.27 Fair CLR 29.5 22.5 66% 33 75.9 0.0
04 10:55 N 13 16.09 Fair CLR 29.7 22.7 66% 33 75.87 0.0
04 10:35 N 6 16.09 Fair CLR 29.3 22.7 68% 33 75.84 0.0
04 10:15 Calm 16.09 Fair CLR 28.3 22.8 72% 32 75.84 0.0
04 09:55 Calm 16.09 Fair CLR 27.5 22.8 76% 30 75.82 0.0
04 09:35 Calm 16.09 Fair CLR 27.1 22.8 77% 30 75.82 0.0
04 09:15 Calm 11.27 Fair CLR 26.4 23.1 82% 29 75.82 0.0
04 08:55 Calm 16.09 Fair CLR 25.6 23 86% 27 75.84 0.0
04 08:35 Calm 11.27 Fair CLR 25 23.1 89% 26 75.82 0.0
04 08:15 Calm 11.27 Fair CLR 24.3 23.1 93% 24 75.82 0.0
04 07:55 Calm 11.27 Fair CLR 23.6 23.2 98% 75.79 0.0
04 07:35 Calm 11.27 Fair CLR 22.8 22.8 100% 75.79 0.0
04 07:15 Calm 11.27 Fair CLR 22.3 22.3 100% 75.77 0.0
04 06:55 N 6 11.27 Fair CLR 21.8 21.8 24.6 21.8 100% 75.77 0.0
04 06:35 Calm 11.27 Fair CLR 22 22 100% 75.77 0.0
04 06:15 Calm 11.27 Fair CLR 22.3 22.3 100% 75.74 0.0
04 05:55 Calm 11.27 Fair CLR 22.7 22.7 100% 75.74 0.0
04 05:35 Calm 11.27 Fair CLR 22.6 22.5 99% 75.77 0.0
04 05:15 N 7 16.09 Fair CLR 22.8 22.8 100% 75.77 0.0
04 04:55 Calm 11.27 Fair CLR 22.8 22.8 100% 75.74 0.0
04 04:35 Calm 11.27 Fair CLR 22.8 22.7 99% 75.74 0.0
04 04:15 Calm 16.09 Fair CLR 23 22.8 99% 75.72 0.0
04 03:55 Calm 11.27 Fair CLR 23.5 23 97% 75.72 0.0
04 03:35 Calm 11.27 Fair CLR 23.5 23 97% 75.72 0.0
04 03:15 Calm 11.27 Fair CLR 23.7 22.7 94% 75.69 0.0
04 02:55 Calm 16.09 Partly Cloudy SCT120 24 22.9 94% 23 75.69 0.0
04 02:35 Calm 11.27 Mostly Cloudy BKN120 24.2 23 93% 24 75.69 0.0
04 02:15 Calm 11.27 Overcast OVC120 24.3 23 92% 24 75.72 0.0
04 01:55 Calm 16.09 Overcast OVC120 24 23 94% 23 75.72 0.0
04 01:35 Calm 16.09 Overcast OVC120 24.3 22.8 91% 24 75.72 0.0
04 01:15 Calm 11.27 Mostly Cloudy BKN120 24.4 22.9 91% 24 75.72 0.0
04 00:55 Calm 11.27 Partly Cloudy SCT120 24.6 22.6 29.5 24.6 89% 25 75.72 0.0
04 00:35 SE 6 16.09 Partly Cloudy SCT120 25 22.5 86% 26 75.72 0.0
04 00:15 S 7 16.09 Partly Cloudy SCT120 25.1 22.5 86% 26 75.72 0.0
03 23:55 SE 7 16.09 Mostly Cloudy BKN120 25.2 22.3 84% 26 75.72 0.0
03 23:35 SE 9 16.09 Mostly Cloudy BKN120 25.2 22.3 84% 26 75.72 0.0
03 23:15 SE 6 16.09 Partly Cloudy SCT120 25.1 22.1 84% 26 75.69 0.0
03 22:55 SE 6 11.27 Fair CLR 25.5 22 81% 27 75.72 0.0
03 22:35 SE 9 16.09 Fair CLR 25.7 21.8 79% 27 75.69 0.0
03 22:15 SE 9 11.27 Fair CLR 26.1 21.6 76% 28 75.72 0.0
03 21:55 SE 6 16.09 Fair CLR 26.1 21.5 76% 28 75.72 0.0
03 21:35 SE 6 16.09 Partly Cloudy SCT120 26.2 21.1 74% 28 75.72 0.0
03 21:15 SE 6 16.09 Partly Cloudy SCT120 26.5 21 72% 28 75.72 0.0
03 20:55 Calm 16.09 Fair CLR 26.6 20.8 71% 28 75.72 0.0
03 20:35 SE 7 16.09 Partly Cloudy SCT040 27 20.8 69% 29 75.69 0.0
03 20:15 SE 7 16.09 Fair CLR 27.5 20.5 66% 29 75.67 0.0
03 19:55 SE 9 16.09 Fair CLR 27.9 20.3 63% 30 75.67 0.0
03 19:35 SE 9 16.09 Fair CLR 28.5 20.1 60% 30 75.67 0.0
03 19:15 SE 13 16.09 Fair CLR 29 20 58% 31 75.67 0.0
03 18:55 SE 17 16.09 Fair CLR 29.5 19.9 30.9 25 56% 31 75.67 0.0 0.03
03 18:35 SE 17 16.09 Fair CLR 29.8 19.6 54% 31 75.64 0.0
03 18:15 SE 13 16.09 Fair CLR 30.1 19.6 53% 32 75.62 0.0
03 17:55 SE 19 G 30 11.27 Fair CLR 30.1 19.5 53% 32 75.62 0.0
03 17:35 SE 19 G 28 16.09 Fair CLR 30.1 19.5 53% 32 75.62 0.0
03 17:15 SE 19 16.09 Fair CLR 30.3 19.5 52% 32 75.62 0.0
03 16:55 SE 17 11.27 Fair CLR 29.6 19 53% 31 75.64 0.0 0.03
03 16:35 SE 19 G 28 16.09 Light Rain SCT050 SCT065 SCT090 29.2 19.7 57% 31 75.64 0.0 0.03
03 16:15 SE 17 16.09 Mostly Cloudy BKN050 BKN065 BKN090 29.6 18.5 51% 31 75.69 0.0
03 15:35 SE 19 G 30 16.09 Fair CLR 30.4 19 51% 32 75.69 0.0
03 15:15 SE 20 G 35 11.27 Fair CLR 30.2 19.5 53% 32 75.69 0.0
03 14:55 SE 13 16.09 Partly Cloudy SCT110 30.1 21.1 59% 33 75.69 0.0
03 14:35 SE 13 11.27 Partly Cloudy SCT110 29.4 20.9 60% 32 75.72 0.0
03 14:15 E 9 16.09 Partly Cloudy SCT120 27.7 20.6 65% 30 75.77 0.0
03 13:55 E 6 16.09 Thunderstorm in Vicinity SCT039 SCT050 BKN085 26.5 20.4 69% 28 75.77 0.0
03 13:15 Calm 16.09 Thunderstorm Light Rain SCT050 SCT060 SCT070 25.5 20.5 74% 27 75.79 0.0
03 12:55 SE 7 16.09 Fair CLR 25.8 20.2 25.8 22 71% 27 75.77 0.0 0.03
03 12:35 E 9 16.09 Partly Cloudy SCT080 SCT110 24.5 20.5 78% 25 75.77 0.0
03 12:15 SE 9 16.09 Overcast BKN080 OVC110 24.8 20 75% 26 75.82 0.0
03 11:55 SE 7 16.09 Overcast OVC080 25.3 20 73% 26 75.82 0.0
03 11:35 SE 7 16.09 Thunderstorm in Vicinity BKN080 25.6 20 71% 27 75.82 0.0
03 11:15 SE 9 11.27 Mostly Cloudy BKN080 BKN095 BKN120 25.5 20 72% 27 75.82 0.0
03 10:55 SE 9 16.09 Mostly Cloudy BKN095 BKN120 24.8 19.9 74% 26 75.79 0.0
03 10:35 SE 9 16.09 Overcast OVC095 24.6 19.5 73% 25 75.84 0.0
03 10:15 SE 7 11.27 Overcast OVC095 24.7 19.8 74% 26 75.82 0.0
03 09:55 E 9 11.27 Mostly Cloudy BKN085 25.2 20 73% 26 75.82 0.0 0.03
03 09:35 Calm 11.27 Partly Cloudy SCT085 24.5 20.1 77% 25 75.82 0.0
03 09:15 Calm 11.27 Fair CLR 24.2 20.5 80% 25 75.82 0.0
03 08:55 Calm 11.27 Fair CLR 23.7 20.4 82% 75.82 0.0
03 08:35 Calm 11.27 Partly Cloudy SCT100 22.8 20.6 87% 75.82 0.0
03 08:15 SE 6 11.27 Overcast OVC100 22.2 20.6 91% 75.82 0.0
03 07:55 SE 9 11.27 Overcast OVC100 22.2 20.7 91% 75.82 0.0 0.03
03 07:35 SE 9 16.09 Mostly Cloudy BKN100 BKN120 22.2 21 93% 75.79 0.0 0.03
03 07:15 SE 7 16.09 Thunderstorm Light Rain in Vicinity SCT015 SCT065 BKN090 22.2 20.5 90% 75.82 0.0 0.03
03 06:55 S 19 G 30 8.05 Rain SCT046 SCT050 BKN065 24 20.6 24.6 22.5 81% 24 75.84 0.0
03 06:35 S 9 16.09 Partly Cloudy SCT042 SCT065 SCT085 23.5 21 86% 75.79 0.0
03 05:55 Calm 16.09 Overcast SCT036 BKN055 OVC120 22.7 21.5 93% 75.82 0.0
03 05:35 SE 9 16.09 Partly Cloudy SCT080 SCT120 22.5 21.3 93% 75.82 0.0
03 05:15 SE 6 16.09 Partly Cloudy SCT120 22.5 21 91% 75.79 0.0
03 04:55 SE 7 16.09 Fair CLR 22.9 21 89% 75.79 0.0
03 04:35 Calm 16.09 Fair CLR 23 20.9 88% 75.79 0.0
03 04:15 SE 6 16.09 Fair CLR 23.2 21 88% 75.79 0.0
03 03:55 Calm 16.09 Fair CLR 23.2 20.7 86% 75.77 0.0
03 03:35 Calm 16.09 Fair CLR 22.9 20.5 86% 75.77 0.0
03 03:15 Calm 16.09 Fair CLR 23.5 20.5 83% 75.77 0.0
03 02:55 Calm 16.09 Fair CLR 23.6 20.3 82% 75.82 0.0
03 02:35 Calm 16.09 Fair CLR 23.9 20.2 80% 24 75.79 0.0
03 02:15 Calm 16.09 Fair CLR 24 20.2 79% 24 75.82 0.0
03 01:55 Calm 16.09 Fair CLR 24.3 20.1 77% 25 75.82 0.0
03 01:35 Calm 16.09 Fair CLR 24.3 20 77% 25 75.82 0.0
03 01:15 Calm 16.09 Fair CLR 24.5 20 76% 25 75.84 0.0
03 00:55 Calm 16.09 Fair CLR 24.6 19.7 30.2 24.6 74% 25 75.84 0.0
03 00:35 Calm 16.09 Fair CLR 24.8 19.6 73% 26 75.82 0.0
03 00:15 Calm 16.09 Fair CLR 25 19.6 72% 26 75.82 0.0
02 23:55 Calm 16.09 Fair CLR 25.2 19.5 71% 26 75.84 0.0
02 23:35 Calm 16.09 Fair CLR 25.5 19.5 70% 27 75.84 0.0
02 23:15 Calm 16.09 Fair CLR 25.7 19.6 69% 27 75.84 0.0
02 22:55 Calm 16.09 Partly Cloudy SCT042 SCT048 26 19.6 68% 27 75.87 0.0
02 22:35 E 9 16.09 Mostly Cloudy BKN044 26.3 19.5 66% 28 75.87 0.0
02 22:15 E 7 16.09 Overcast OVC044 26.6 19.7 66% 28 75.87 0.0
02 21:55 Calm 16.09 Mostly Cloudy SCT042 BKN049 26.6 19.7 66% 28 75.87 0.0
02 21:35 Calm 16.09 Partly Cloudy SCT050 27.2 19.6 63% 29 75.84 0.0
02 21:15 Calm 16.09 Partly Cloudy SCT055 27.6 19.5 61% 29 75.84 0.0
02 20:55 Calm 16.09 Fair CLR 28 19.5 60% 29 75.84 0.0
02 20:35 Calm 16.09 Fair CLR 28.2 19.3 59% 30 75.82 0.0
02 20:15 Calm 16.09 Fair CLR 28.6 19.1 56% 30 75.82 0.0
02 19:55 E 7 16.09 Fair CLR 29.4 18.6 52% 31 75.79 0.0
02 19:35 Calm 16.09 Fair CLR 29.8 18.5 51% 31 75.82 0.0
02 19:15 SE 6 16.09 Fair CLR 30.1 18.3 49% 31 75.79 0.0
02 18:55 SE 6 16.09 Fair CLR 30.3 18.1 31.4 27.1 48% 31 75.79 0.0
02 18:35 SE 6 16.09 Fair CLR 30.7 18 47% 32 75.82 0.0
02 18:15 S 9 16.09 Fair CLR 30.9 17.8 46% 32 75.82 0.0
02 17:55 Calm 16.09 Fair CLR 31 17.3 44% 32 75.82 0.0
02 17:35 S 6 16.09 Fair CLR 30.9 17 43% 31 75.82 0.0
02 17:15 S 9 16.09 Fair CLR 31.4 16.6 41% 32 75.82 0.0
02 16:55 S 6 16.09 Fair CLR 31.2 16.3 41% 31 75.82 0.0
02 16:35 SW 11 16.09 Fair CLR 31 16.7 42% 31 75.82 0.0
02 16:15 SE 7 16.09 Fair CLR 30.9 16.6 42% 31 75.82 0.0
02 15:55 SE 6 16.09 Fair CLR 30.5 16.4 43% 31 75.82 0.0
02 15:35 SE 7 16.09 Fair CLR 30.3 16.5 43% 30 75.84 0.0
02 15:15 S 7 16.09 Fair CLR 30.7 16.5 42% 31 75.84 0.0
02 14:55 SE 6 16.09 Fair CLR 30.3 16.3 43% 30 75.9 0.0
02 14:35 S 9 16.09 Fair CLR 29.6 16.5 45% 30 75.92 0.0
02 14:15 NE 6 16.09 Fair CLR 29.1 16.6 47% 29 75.92 0.0
02 13:55 E 9 16.09 Fair CLR 29.3 16.8 47% 30 75.92 0.0
02 13:35 Calm 16.09 Fair CLR 28.1 16.6 50% 29 75.92 0.0
02 13:15 Calm 16.09 Fair CLR 27.6 16.7 51% 28 75.95 0.0
02 12:55 E 6 11.27 Fair CLR 27.5 17.4 27.6 18.6 54% 28 75.97 0.0
02 12:35 S 6 16.09 Fair CLR 26.6 17.3 57% 27 76 0.0
02 12:15 SE 7 16.09 Fair CLR 26.1 16.6 56% 27 76.02 0.0
02 11:55 SE 6 16.09 Fair CLR 25.7 17.1 59% 27 76 0.0
02 11:35 S 6 11.27 Fair CLR 25.3 17.5 62% 26 76.02 0.0
02 11:15 SE 7 11.27 Fair CLR 25.2 17.3 62% 26 76 0.0
02 10:55 S 7 16.09 Fair CLR 24.2 17.1 65% 25 76 0.0
02 10:35 SE 7 16.09 Fair CLR 23.9 17 65% 25 76 0.0
02 10:15 S 6 16.09 Fair CLR 23.7 17.1 67% 76 0.0
02 09:55 SE 9 16.09 Fair CLR 22.8 17 70% 75.97 0.0
Date Time (cdt) Wind (kph) Vis. (km) Weather Sky Cond. Air Dwpt Max. Min. Relative Humidity Wind Chill (°C) Heat Index (°C) altimeter (cm) sea level (mb) 1 hr 3 hr 6 hr
6 hour
Temperature (ºC) Pressure Precipitation (cm)